Lloydminster, Canada
Current Conditions -  °F | °C
As of 1:49 PM on Friday 21 Nov 2014 (Local Time) from CYLL Reporting Station
Light Rain Light Rain  
Wind Chill: 28°   Ceiling: 300
Heat Index: 36°   Visibility: 2.5mi
Dew Point: 34°   Wind: 10mph
Humidity: 93%   Direction: 360°N
Pressure: 29.51"   Gusts: NA
Location:  53.32°N, 110.07°W
Report Text: CYLL 212049Z 36009KT 2 1/2SM -RA BR OVC003 02/01 A2951 RMK ST8 SLP022
Loading
Personal Weather Stations






























Interactive Weather Map New forecast layout! Learn more

10-Day Weather Forecast

Advertisements
Track Severe Weather on mobile